Time;durP1;ratioP1;P1;durP2;ratioP2;P2;SDS_P1;SDS_P2;PMS_P1;PMS_P2;Temp;Humidity;BMP_temperature;BMP_pressure;BME280_temperature;BME280_humidity;BME280_pressure;Samples;Min_cycle;Max_cycle;Signal;HPM_P1;HPM_P2
2023/01/02 00:01:21;;;;;;;11.83;6.60;;;13.80;99.90;;;;;;5051482;28;20434;-54
2023/01/02 00:03:48;;;;;;;16.80;6.50;;;14.00;99.90;;;;;;5051410;28;20435;-54
2023/01/02 00:06:16;;;;;;;11.00;5.63;;;13.80;99.90;;;;;;5051505;28;20537;-55
2023/01/02 00:08:43;;;;;;;11.33;6.50;;;13.90;99.90;;;;;;5050703;28;20873;-53
2023/01/02 00:11:09;;;;;;;15.50;6.50;;;14.00;99.90;;;;;;5051420;28;20477;-54
2023/01/02 00:13:36;;;;;;;14.23;6.00;;;13.90;99.90;;;;;;5051417;28;20804;-55
2023/01/02 00:16:03;;;;;;;9.77;5.60;;;13.90;99.90;;;;;;5033452;28;20456;-55
2023/01/02 00:18:31;;;;;;;15.63;6.97;;;13.50;99.90;;;;;;5050509;28;20454;-54
2023/01/02 00:21:02;;;;;;;9.80;6.10;;;14.00;99.90;;;;;;5051348;28;20446;-53
2023/01/02 00:23:29;;;;;;;8.63;5.30;;;13.90;99.90;;;;;;5051011;28;20950;-55
2023/01/02 00:25:55;;;;;;;12.63;6.07;;;14.20;99.90;;;;;;5051022;28;20414;-53
2023/01/02 00:28:22;;;;;;;9.03;5.40;;;13.90;99.90;;;;;;5050853;28;20945;-54
2023/01/02 00:30:48;;;;;;;13.57;5.90;;;13.90;99.90;;;;;;5032797;28;20479;-54
2023/01/02 00:33:16;;;;;;;12.83;5.73;;;14.00;99.90;;;;;;5051442;28;20431;-54
2023/01/02 00:35:44;;;;;;;13.93;5.47;;;14.10;99.90;;;;;;5051143;28;20453;-54
2023/01/02 00:38:10;;;;;;;7.67;5.53;;;13.90;99.90;;;;;;5051099;28;20424;-55
2023/01/02 00:40:37;;;;;;;18.33;6.40;;;13.90;99.90;;;;;;5050380;28;20463;-54
2023/01/02 00:43:04;;;;;;;13.63;5.93;;;13.90;99.90;;;;;;5051357;28;20891;-53
2023/01/02 00:45:31;;;;;;;8.33;5.60;;;14.00;99.90;;;;;;5033143;28;20446;-55
2023/01/02 00:47:58;;;;;;;14.90;5.43;;;13.90;99.90;;;;;;5051066;28;20424;-53
2023/01/02 00:50:24;;;;;;;15.83;7.37;;;13.70;99.90;;;;;;5050375;28;20462;-54
2023/01/02 00:52:52;;;;;;;9.80;6.07;;;14.00;99.90;;;;;;5051625;28;20428;-54
2023/01/02 00:55:19;;;;;;;13.03;5.83;;;13.80;99.90;;;;;;5050934;28;20437;-54
2023/01/02 00:57:45;;;;;;;9.10;5.07;;;14.00;99.90;;;;;;5050671;28;20504;-54
2023/01/02 01:00:13;;;;;;;9.27;5.10;;;14.10;99.90;;;;;;5052980;28;20455;-54
2023/01/02 01:02:40;;;;;;;8.90;5.33;;;13.80;99.90;;;;;;5054661;28;20713;-55
2023/01/02 01:05:07;;;;;;;9.23;4.83;;;13.90;99.90;;;;;;5054704;28;20488;-54
2023/01/02 01:07:34;;;;;;;6.83;4.73;;;14.10;99.90;;;;;;5054569;28;20948;-55
2023/01/02 01:10:02;;;;;;;14.33;5.37;;;13.70;99.90;;;;;;5053847;28;20462;-53
2023/01/02 01:12:28;;;;;;;8.30;3.90;;;13.90;99.90;;;;;;5054487;28;20553;-54
2023/01/02 01:14:55;;;;;;;9.47;4.60;;;13.30;99.90;;;;;;5054476;28;20779;-54
2023/01/02 01:17:21;;;;;;;9.17;5.73;;;13.80;99.90;;;;;;5054318;28;20435;-55
2023/01/02 01:19:48;;;;;;;9.37;4.83;;;14.10;99.90;;;;;;5053805;28;20480;-55
2023/01/02 01:22:15;;;;;;;10.80;4.93;;;13.90;99.90;;;;;;5054382;28;20790;-54
2023/01/02 01:24:41;;;;;;;9.30;5.10;;;14.00;99.90;;;;;;5054270;28;20445;-55
2023/01/02 01:27:09;;;;;;;13.13;4.40;;;13.90;99.90;;;;;;5054302;28;20438;-55
2023/01/02 01:29:36;;;;;;;10.87;4.73;;;13.90;99.90;;;;;;5035495;28;20458;-55
2023/01/02 01:32:02;;;;;;;6.93;4.97;;;13.90;99.90;;;;;;5054134;28;20995;-54
2023/01/02 01:34:29;;;;;;;5.73;4.67;;;14.30;99.90;;;;;;5054242;28;20442;-54
2023/01/02 01:36:56;;;;;;;10.00;5.17;;;14.10;99.90;;;;;;5053944;28;20928;-55
2023/01/02 01:39:22;;;;;;;13.27;5.73;;;13.60;99.90;;;;;;5053276;28;20450;-55
2023/01/02 01:41:49;;;;;;;9.80;4.83;;;14.10;99.90;;;;;;5053908;28;20788;-54
2023/01/02 01:44:43;;;;;;;13.73;5.40;;;13.90;99.90;;;;;;5053917;28;20423;-54
2023/01/02 01:47:18;;;;;;;7.90;5.10;;;13.90;99.90;;;;;;5035931;28;20451;-55
2023/01/02 01:49:46;;;;;;;10.10;5.17;;;14.00;99.90;;;;;;5035111;28;20477;-55
2023/01/02 01:52:16;;;;;;;8.73;5.00;;;13.50;99.90;;;;;;5035757;28;20474;-54
2023/01/02 01:54:48;;;;;;;9.83;5.33;;;14.00;99.90;;;;;;5053746;28;20431;-54
2023/01/02 01:57:19;;;;;;;9.63;5.40;;;13.90;99.90;;;;;;5053645;28;20439;-54
2023/01/02 01:59:48;;;;;;;9.53;4.43;;;13.50;99.90;;;;;;5052777;28;20422;-54
2023/01/02 02:02:15;;;;;;;11.27;4.30;;;13.60;99.90;;;;;;5053501;28;20472;-55
2023/01/02 02:04:43;;;;;;;9.43;4.60;;;14.10;99.90;;;;;;5053426;28;20430;-54
2023/01/02 02:07:10;;;;;;;8.20;4.63;;;13.80;99.90;;;;;;5053823;28;20438;-54
2023/01/02 02:09:42;;;;;;;7.30;4.63;;;14.00;99.90;;;;;;5052918;28;20446;-55
2023/01/02 02:12:09;;;;;;;7.17;4.57;;;13.90;99.90;;;;;;5053386;28;20467;-55
2023/01/02 02:14:36;;;;;;;8.47;4.77;;;14.10;99.90;;;;;;5053235;28;20439;-54
2023/01/02 02:17:14;;;;;;;7.07;4.47;;;13.90;99.90;;;;;;5053459;28;20525;-54
2023/01/02 02:20:01;;;;;;;8.47;4.60;;;13.90;99.90;;;;;;5052393;28;20466;-55
2023/01/02 02:22:56;;;;;;;8.63;5.10;;;13.90;99.90;;;;;;5053184;28;20430;-56
2023/01/02 02:25:48;;;;;;;12.17;4.93;;;14.00;99.90;;;;;;5053118;28;20431;-55
2023/01/02 02:28:42;;;;;;;11.53;5.40;;;13.90;99.90;;;;;;5053139;28;20509;-54
2023/01/02 02:31:14;;;;;;;9.90;4.43;;;13.70;99.90;;;;;;5053151;28;20439;-55
2023/01/02 02:33:46;;;;;;;7.53;4.87;;;13.80;99.90;;;;;;5053160;28;20439;-55
2023/01/02 02:36:19;;;;;;;8.47;4.57;;;13.80;99.90;;;;;;5052993;28;20435;-55
2023/01/02 02:38:57;;;;;;;7.67;4.30;;;13.80;99.90;;;;;;5052242;28;20564;-55
2023/01/02 02:41:33;;;;;;;6.33;4.33;;;13.80;99.90;;;;;;5052899;28;20428;-55
2023/01/02 02:44:06;;;;;;;8.10;5.30;;;13.80;99.90;;;;;;5052861;28;20437;-54
2023/01/02 02:46:41;;;;;;;8.90;5.03;;;13.80;99.90;;;;;;5052855;28;20439;-53
2023/01/02 02:49:13;;;;;;;9.50;5.60;;;13.80;99.90;;;;;;5052009;28;20454;-53
2023/01/02 02:51:45;;;;;;;8.00;4.20;;;13.80;99.90;;;;;;5052665;28;20470;-54
2023/01/02 02:54:16;;;;;;;8.50;5.20;;;13.80;99.90;;;;;;5053033;28;20431;-56
2023/01/02 02:56:44;;;;;;;11.10;5.40;;;14.00;99.90;;;;;;5052689;28;20446;-55
2023/01/02 02:59:12;;;;;;;11.40;4.80;;;13.80;99.90;;;;;;5051725;28;20450;-54
2023/01/02 03:01:40;;;;;;;10.30;4.53;;;14.00;99.90;;;;;;5052589;28;20454;-55
2023/01/02 03:04:16;;;;;;;8.23;4.40;;;13.90;99.90;;;;;;5052535;28;20467;-56
2023/01/02 03:06:54;;;;;;;9.03;3.97;;;14.00;99.90;;;;;;5052577;28;20430;-55
2023/01/02 03:09:28;;;;;;;9.20;5.47;;;14.00;99.90;;;;;;5051652;28;20458;-56
2023/01/02 03:12:08;;;;;;;11.33;4.57;;;14.10;99.90;;;;;;5052249;28;20476;-55
2023/01/02 03:14:43;;;;;;;9.30;4.20;;;13.90;99.90;;;;;;5052214;28;20436;-55
2023/01/02 03:17:18;;;;;;;8.13;4.43;;;13.90;99.90;;;;;;5052336;28;20433;-55
2023/01/02 03:19:50;;;;;;;8.10;4.33;;;13.40;99.90;;;;;;5084130;22;20500;-56
2023/01/02 03:22:21;;;;;;;8.53;5.57;;;13.90;99.90;;;;;;5071955;28;20922;-56
2023/01/02 03:24:51;;;;;;;7.67;4.63;;;14.30;99.90;;;;;;5072519;28;20787;-54
2023/01/02 03:27:22;;;;;;;9.00;5.17;;;13.80;99.90;;;;;;5072501;28;20434;-54
2023/01/02 03:29:54;;;;;;;8.00;4.20;;;14.00;99.90;;;;;;5071537;28;20459;-55
2023/01/02 03:32:27;;;;;;;16.73;5.17;;;14.00;99.90;;;;;;5072196;28;20481;-55
2023/01/02 03:34:54;;;;;;;5.43;4.10;;;13.70;99.90;;;;;;5072605;28;20418;-56
2023/01/02 03:37:25;;;;;;;8.63;4.87;;;14.10;99.90;;;;;;5072385;28;20449;-56
2023/01/02 03:39:54;;;;;;;5.90;4.37;;;13.90;99.90;;;;;;5071510;28;20454;-57
2023/01/02 03:42:24;;;;;;;11.23;6.10;;;14.10;99.90;;;;;;5072291;28;20432;-56
2023/01/02 03:44:57;;;;;;;10.23;5.33;;;13.90;99.90;;;;;;5072402;28;20436;-56
2023/01/02 03:47:31;;;;;;;12.23;5.53;;;14.10;99.90;;;;;;5072193;28;20547;-57
2023/01/02 03:50:04;;;;;;;7.90;5.30;;;13.30;99.90;;;;;;5071548;28;20445;-57
2023/01/02 03:52:31;;;;;;;8.87;5.00;;;14.00;99.90;;;;;;5072105;28;20451;-55
2023/01/02 03:55:00;;;;;;;13.97;7.27;;;13.80;99.90;;;;;;5072205;28;20433;-55
2023/01/02 03:57:34;;;;;;;11.27;5.80;;;14.00;99.90;;;;;;5072011;28;20416;-55
2023/01/02 04:00:07;;;;;;;7.97;4.90;;;13.80;99.90;;;;;;5071434;28;20450;-54
2023/01/02 04:02:49;;;;;;;9.30;6.00;;;13.80;99.90;;;;;;5072400;28;20855;-56
2023/01/02 04:05:20;;;;;;;11.83;5.07;;;13.90;99.90;;;;;;5072141;28;20440;-55
2023/01/02 04:07:54;;;;;;;8.87;5.70;;;13.80;99.90;;;;;;5072333;28;20427;-56
2023/01/02 04:10:21;;;;;;;6.60;5.33;;;13.80;99.90;;;;;;5071501;28;20544;-56
2023/01/02 04:12:53;;;;;;;10.43;5.40;;;13.90;99.90;;;;;;5071963;28;20489;-54
2023/01/02 04:15:23;;;;;;;7.20;5.90;;;14.10;99.90;;;;;;5071962;28;20418;-56
2023/01/02 04:17:56;;;;;;;9.53;5.53;;;13.80;99.90;;;;;;5072078;28;20452;-57
2023/01/02 04:20:27;;;;;;;9.77;5.33;;;13.90;99.90;;;;;;5071408;28;20451;-57
2023/01/02 04:22:57;;;;;;;8.27;5.33;;;13.90;99.90;;;;;;5072029;28;20435;-56
2023/01/02 04:25:29;;;;;;;11.07;5.50;;;13.70;99.90;;;;;;5071654;28;20438;-56
2023/01/02 04:27:59;;;;;;;12.10;6.20;;;13.90;99.90;;;;;;5071766;28;20975;-56
2023/01/02 04:30:28;;;;;;;7.80;6.37;;;13.30;99.90;;;;;;5071125;28;20430;-57
2023/01/02 04:32:59;;;;;;;17.13;6.60;;;13.90;99.90;;;;;;5072540;28;20477;-57
2023/01/02 04:35:27;;;;;;;8.80;5.50;;;13.70;99.90;;;;;;5075679;28;20442;-56
2023/01/02 04:37:53;;;;;;;10.00;4.77;;;14.30;99.90;;;;;;5075933;28;20433;-54
2023/01/02 04:40:24;;;;;;;10.63;5.83;;;13.80;99.90;;;;;;5074816;28;20432;-56
2023/01/02 04:42:51;;;;;;;8.40;4.70;;;13.60;99.90;;;;;;5075664;28;20430;-56
2023/01/02 04:45:17;;;;;;;9.40;5.87;;;13.90;99.90;;;;;;5075629;28;20437;-56
2023/01/02 04:47:44;;;;;;;7.10;5.20;;;13.90;99.90;;;;;;5075561;28;20437;-55
2023/01/02 04:50:13;;;;;;;8.60;6.10;;;14.00;99.90;;;;;;5075086;28;20424;-57
2023/01/02 04:52:39;;;;;;;10.10;5.13;;;13.70;99.90;;;;;;5075323;28;20829;-57
2023/01/02 04:55:08;;;;;;;16.00;6.27;;;14.00;99.90;;;;;;5075479;28;20425;-56
2023/01/02 04:57:35;;;;;;;16.47;6.90;;;13.70;99.90;;;;;;5075437;28;20437;-56
2023/01/02 05:00:02;;;;;;;7.60;5.00;;;14.20;99.90;;;;;;5074865;28;20528;-56
2023/01/02 05:02:28;;;;;;;8.53;4.60;;;14.30;99.90;;;;;;5075316;28;20859;-57
2023/01/02 05:04:55;;;;;;;11.53;5.77;;;14.40;99.90;;;;;;5075307;28;20793;-56
2023/01/02 05:07:22;;;;;;;9.87;5.80;;;14.00;99.90;;;;;;5075202;28;20946;-57
2023/01/02 05:09:49;;;;;;;9.67;5.40;;;13.80;99.90;;;;;;5074311;28;20461;-56
2023/01/02 05:12:16;;;;;;;10.53;6.23;;;14.20;99.90;;;;;;5075073;28;20526;-57
2023/01/02 05:14:42;;;;;;;11.13;5.87;;;13.90;99.90;;;;;;5075066;28;20429;-56
2023/01/02 05:17:09;;;;;;;9.13;5.73;;;14.50;99.90;;;;;;5075039;28;20419;-57
2023/01/02 05:19:36;;;;;;;7.47;4.90;;;13.80;99.90;;;;;;5074085;28;20468;-57
2023/01/02 05:24:48;;;;;;;8.40;5.63;;;14.00;99.90;;;;;;5074870;28;20487;-57
2023/01/02 05:27:14;;;;;;;7.23;5.30;;;14.00;99.90;;;;;;5074828;28;20445;-55
2023/01/02 05:29:41;;;;;;;9.77;5.60;;;13.50;99.90;;;;;;5073949;28;20548;-57
2023/01/02 05:32:07;;;;;;;8.90;6.03;;;14.00;99.90;;;;;;5056547;28;20445;-58
2023/01/02 05:34:34;;;;;;;8.67;5.10;;;14.30;99.90;;;;;;5074469;28;20430;-57
2023/01/02 05:37:00;;;;;;;13.50;5.60;;;13.50;99.90;;;;;;5074554;28;20448;-53
2023/01/02 05:39:27;;;;;;;10.50;5.83;;;14.40;99.90;;;;;;5073884;28;20439;-57
2023/01/02 05:41:55;;;;;;;11.07;5.80;;;13.90;99.90;;;;;;5074587;28;20445;-56
2023/01/02 05:44:21;;;;;;;11.50;5.90;;;14.10;99.90;;;;;;5073875;28;20393;-57
2023/01/02 05:46:48;;;;;;;14.80;6.97;;;14.30;99.90;;;;;;5074222;28;20442;-55
2023/01/02 05:49:15;;;;;;;8.20;5.70;;;14.10;99.90;;;;;;5073805;28;20680;-57
2023/01/02 05:51:41;;;;;;;8.03;5.60;;;14.50;99.90;;;;;;5074311;28;20437;-57
2023/01/02 05:54:08;;;;;;;7.77;5.97;;;14.20;99.90;;;;;;5074556;28;20546;-57
2023/01/02 05:56:35;;;;;;;8.87;5.33;;;13.90;99.90;;;;;;5074628;28;20836;-57
2023/01/02 05:59:06;;;;;;;7.70;5.00;;;14.00;99.90;;;;;;5073379;28;20432;-56
2023/01/02 06:01:33;;;;;;;9.20;5.30;;;14.20;99.90;;;;;;5074153;28;20441;-56
2023/01/02 06:04:00;;;;;;;9.80;5.80;;;14.00;99.90;;;;;;5074096;28;20437;-57
2023/01/02 06:06:30;;;;;;;9.90;5.93;;;14.00;99.90;;;;;;5055985;28;20449;-58
2023/01/02 06:08:58;;;;;;;9.73;5.93;;;14.10;99.90;;;;;;5073065;28;20437;-57
2023/01/02 06:11:24;;;;;;;7.80;5.40;;;13.90;99.90;;;;;;5074025;28;20435;-57
2023/01/02 06:13:52;;;;;;;9.27;4.83;;;13.90;99.90;;;;;;5073549;28;20488;-56
2023/01/02 06:16:20;;;;;;;10.80;5.10;;;13.90;99.90;;;;;;5073761;28;20404;-56
2023/01/02 06:18:47;;;;;;;11.60;5.33;;;13.70;99.90;;;;;;5072867;28;20437;-57
2023/01/02 06:21:15;;;;;;;12.77;5.17;;;14.00;99.90;;;;;;5073721;28;20434;-56
2023/01/02 06:23:43;;;;;;;10.70;5.60;;;14.40;99.90;;;;;;5073634;28;20433;-56
2023/01/02 06:26:11;;;;;;;12.43;4.70;;;14.40;99.90;;;;;;5073550;28;20941;-56
2023/01/02 06:28:38;;;;;;;8.87;5.37;;;14.30;99.90;;;;;;5072786;28;20442;-56
2023/01/02 06:31:07;;;;;;;9.70;4.73;;;13.70;99.90;;;;;;5073350;28;20441;-56
2023/01/02 06:33:35;;;;;;;13.13;5.77;;;13.90;99.90;;;;;;5073339;28;20536;-57
2023/01/02 06:36:04;;;;;;;11.40;5.63;;;13.90;99.90;;;;;;5073393;28;20430;-57
2023/01/02 06:38:31;;;;;;;7.90;4.93;;;14.20;99.90;;;;;;5072390;28;20926;-56
2023/01/02 06:40:59;;;;;;;9.13;4.47;;;13.70;99.90;;;;;;5072945;28;20453;-57
2023/01/02 06:43:27;;;;;;;13.13;5.27;;;14.00;99.90;;;;;;5073285;28;20431;-57
2023/01/02 06:45:56;;;;;;;13.10;5.70;;;14.00;99.90;;;;;;5073211;28;20471;-58
2023/01/02 06:48:23;;;;;;;9.93;4.40;;;14.30;99.90;;;;;;5072738;28;20796;-55
2023/01/02 06:50:51;;;;;;;13.17;4.37;;;13.60;99.90;;;;;;5072688;28;20832;-57
2023/01/02 06:53:17;;;;;;;14.10;5.50;;;14.10;99.90;;;;;;5072884;28;20808;-56
2023/01/02 06:55:50;;;;;;;6.90;4.30;;;14.30;99.90;;;;;;5072464;28;20906;-55
2023/01/02 06:58:17;;;;;;;7.60;4.80;;;14.40;99.90;;;;;;5072336;28;20412;-56
2023/01/02 07:00:43;;;;;;;14.33;5.80;;;14.10;99.90;;;;;;5072089;28;20459;-55
2023/01/02 07:03:10;;;;;;;11.23;5.70;;;14.50;99.90;;;;;;5072791;28;20426;-55
2023/01/02 07:05:36;;;;;;;9.20;5.07;;;14.30;99.90;;;;;;5072774;28;20433;-56
2023/01/02 07:08:05;;;;;;;12.17;5.00;;;14.00;99.90;;;;;;5072712;28;20490;-55
2023/01/02 07:10:32;;;;;;;9.30;5.23;;;14.20;99.90;;;;;;5071743;28;20457;-56
2023/01/02 07:12:58;;;;;;;9.77;4.93;;;14.10;99.90;;;;;;5072738;28;20527;-56
2023/01/02 07:15:25;;;;;;;15.00;6.10;;;13.60;99.90;;;;;;5072519;28;20931;-54
2023/01/02 07:17:52;;;;;;;8.00;5.37;;;14.50;99.90;;;;;;5072439;28;20412;-56
2023/01/02 07:20:18;;;;;;;12.47;6.03;;;14.60;99.90;;;;;;5071863;28;20469;-58
2023/01/02 07:22:49;;;;;;;10.10;4.87;;;14.20;99.90;;;;;;5072179;28;20438;-56
2023/01/02 07:25:17;;;;;;;8.30;4.83;;;14.20;99.90;;;;;;5072564;28;20429;-55
2023/01/02 07:28:03;;;;;;;7.87;4.80;;;14.20;99.90;;;;;;5072194;28;20408;-56
2023/01/02 07:30:30;;;;;;;8.03;4.30;;;14.20;99.90;;;;;;5053686;28;21011;-56
2023/01/02 07:32:57;;;;;;;8.00;3.83;;;14.20;99.90;;;;;;5054049;28;20439;-57
2023/01/02 07:35:24;;;;;;;10.70;4.67;;;14.20;99.90;;;;;;5072042;28;20422;-57
2023/01/02 07:37:51;;;;;;;8.83;4.73;;;14.20;99.90;;;;;;5072308;28;20435;-56
2023/01/02 07:40:19;;;;;;;9.17;4.33;;;14.10;99.90;;;;;;5053420;28;20881;-55
2023/01/02 07:42:46;;;;;;;12.83;4.23;;;14.00;99.90;;;;;;5072500;28;20420;-57
2023/01/02 07:45:12;;;;;;;17.50;6.07;;;14.40;99.90;;;;;;5071897;28;20407;-56
2023/01/02 07:47:39;;;;;;;6.10;4.43;;;14.00;99.90;;;;;;5071676;28;20779;-57
2023/01/02 07:50:06;;;;;;;6.87;4.67;;;14.40;99.90;;;;;;5071166;28;20663;-56
2023/01/02 07:52:33;;;;;;;9.03;4.30;;;14.40;99.90;;;;;;5053650;28;20424;-56
2023/01/02 07:54:59;;;;;;;6.40;3.83;;;14.80;99.90;;;;;;5071850;28;20478;-57
2023/01/02 07:57:29;;;;;;;6.33;4.57;;;14.80;99.90;;;;;;5071709;28;20879;-54
2023/01/02 07:59:55;;;;;;;7.97;5.00;;;14.40;99.90;;;;;;5071025;28;20441;-56
2023/01/02 08:02:22;;;;;;;7.07;4.30;;;14.10;99.90;;;;;;5071518;28;20434;-56
2023/01/02 08:04:49;;;;;;;25.50;8.10;;;14.10;99.90;;;;;;5071691;28;20451;-55
2023/01/02 08:07:15;;;;;;;14.73;6.00;;;14.60;99.90;;;;;;5071397;28;20435;-55
2023/01/02 08:09:42;;;;;;;9.90;4.23;;;14.30;99.90;;;;;;5070938;28;20981;-57
2023/01/02 08:12:08;;;;;;;9.10;4.03;;;14.10;99.90;;;;;;5071642;28;20455;-56
2023/01/02 08:14:36;;;;;;;9.53;4.20;;;14.40;99.90;;;;;;5071432;28;20500;-57
2023/01/02 08:17:03;;;;;;;23.00;5.23;;;14.60;99.90;;;;;;5072116;28;20837;-56
2023/01/02 08:19:30;;;;;;;11.67;4.53;;;14.70;99.90;;;;;;5070506;28;20560;-57
2023/01/02 08:21:57;;;;;;;10.03;3.97;;;15.10;99.90;;;;;;5071644;28;20437;-56
2023/01/02 08:24:23;;;;;;;13.13;5.70;;;14.70;99.90;;;;;;5071712;28;20432;-56
2023/01/02 08:26:50;;;;;;;9.83;4.23;;;15.00;99.90;;;;;;5071462;28;20495;-56
2023/01/02 08:29:16;;;;;;;9.97;4.23;;;14.70;99.90;;;;;;5070506;28;20476;-57
2023/01/02 08:31:44;;;;;;;7.30;3.50;;;14.90;99.90;;;;;;5071458;28;20430;-55
2023/01/02 08:34:13;;;;;;;5.30;3.77;;;14.80;99.90;;;;;;5071378;28;20480;-56
2023/01/02 08:36:40;;;;;;;7.93;4.13;;;14.60;99.90;;;;;;5071444;28;20491;-56
2023/01/02 08:39:06;;;;;;;10.90;3.97;;;14.70;99.90;;;;;;5070497;28;20453;-56
2023/01/02 08:41:36;;;;;;;8.00;3.53;;;14.80;99.90;;;;;;5071468;28;20416;-57
2023/01/02 08:44:03;;;;;;;15.73;3.67;;;15.00;99.90;;;;;;5071113;28;20430;-57
2023/01/02 08:46:31;;;;;;;11.67;4.43;;;14.80;99.90;;;;;;5071670;28;20524;-57
2023/01/02 08:48:59;;;;;;;11.60;4.60;;;14.70;99.90;;;;;;5070335;28;20445;-56
2023/01/02 08:51:26;;;;;;;10.83;3.63;;;14.80;99.90;;;;;;5070968;28;20432;-56
2023/01/02 08:53:54;;;;;;;7.67;3.50;;;15.30;99.90;;;;;;5071202;28;20470;-57
2023/01/02 08:56:22;;;;;;;7.10;3.77;;;15.30;99.90;;;;;;5071354;28;20866;-57
2023/01/02 08:58:50;;;;;;;5.50;3.53;;;14.80;99.90;;;;;;5070430;28;20442;-56
2023/01/02 09:01:17;;;;;;;10.17;4.57;;;15.20;99.90;;;;;;5071033;28;20434;-57
2023/01/02 09:03:44;;;;;;;20.10;4.97;;;15.20;99.90;;;;;;5053120;28;20450;-55
2023/01/02 09:06:12;;;;;;;12.60;4.93;;;15.10;99.90;;;;;;5071161;28;20432;-55
2023/01/02 09:08:38;;;;;;;8.93;4.30;;;15.20;99.90;;;;;;5070299;28;20437;-56
2023/01/02 09:11:11;;;;;;;8.23;4.20;;;15.20;99.90;;;;;;5070939;28;20414;-56
2023/01/02 09:13:37;;;;;;;8.70;4.37;;;15.60;99.90;;;;;;5071056;28;20473;-55
2023/01/02 09:16:05;;;;;;;11.30;4.07;;;15.00;99.90;;;;;;5070961;28;20930;-55
2023/01/02 09:18:31;;;;;;;10.40;4.27;;;15.30;99.90;;;;;;5070222;28;20449;-56
2023/01/02 09:20:58;;;;;;;5.50;3.50;;;15.60;99.90;;;;;;5073820;28;20813;-54
2023/01/02 09:23:26;;;;;;;8.33;4.13;;;15.40;99.80;;;;;;5074463;28;20408;-55
2023/01/02 09:25:52;;;;;;;6.10;3.80;;;15.40;99.70;;;;;;5074878;28;20436;-55
2023/01/02 09:28:19;;;;;;;11.50;4.63;;;15.10;99.40;;;;;;5074448;28;20429;-55
2023/01/02 09:30:45;;;;;;;5.30;2.93;;;15.30;99.40;;;;;;5073923;28;20446;-56
2023/01/02 09:33:12;;;;;;;6.83;3.57;;;15.60;98.90;;;;;;5074516;28;20752;-56
2023/01/02 09:35:38;;;;;;;9.60;3.63;;;15.70;99.40;;;;;;5074229;28;20846;-55
2023/01/02 09:38:05;;;;;;;9.87;4.00;;;16.00;99.50;;;;;;5074377;28;20441;-57
2023/01/02 09:40:35;;;;;;;8.63;3.40;;;15.50;99.10;;;;;;5073626;28;20798;-57
2023/01/02 09:43:02;;;;;;;9.23;3.93;;;15.10;98.80;;;;;;5056279;28;20433;-56
2023/01/02 09:45:29;;;;;;;13.83;3.53;;;15.50;99.00;;;;;;5074243;28;20431;-56
2023/01/02 09:47:58;;;;;;;7.33;4.03;;;15.20;98.70;;;;;;5074419;28;20430;-56
2023/01/02 09:50:27;;;;;;;7.00;3.30;;;15.50;98.70;;;;;;5073493;28;20455;-57
2023/01/02 09:52:57;;;;;;;9.23;4.07;;;15.70;98.80;;;;;;5056167;28;20498;-56
2023/01/02 09:55:42;;;;;;;10.97;4.30;;;15.80;98.70;;;;;;5073972;28;20477;-57
2023/01/02 09:58:16;;;;;;;10.70;4.13;;;15.90;98.50;;;;;;5074080;28;20921;-55
2023/01/02 10:00:52;;;;;;;7.00;3.40;;;15.70;98.30;;;;;;5073335;28;20449;-57
2023/01/02 10:03:26;;;;;;;11.40;4.17;;;15.70;98.20;;;;;;5055993;28;20445;-56
2023/01/02 10:06:11;;;;;;;12.30;4.73;;;15.50;98.00;;;;;;5074015;28;20514;-55
2023/01/02 10:08:47;;;;;;;12.00;4.30;;;16.00;98.10;;;;;;5071601;28;20462;-56
2023/01/02 10:11:33;;;;;;;6.93;3.53;;;15.70;97.80;;;;;;5073792;28;20445;-56
2023/01/02 10:14:03;;;;;;;6.90;3.77;;;15.60;97.50;;;;;;5073785;28;20473;-57
2023/01/02 10:16:32;;;;;;;8.40;3.57;;;15.90;97.80;;;;;;5073723;28;20958;-57
2023/01/02 10:19:02;;;;;;;9.87;3.53;;;16.20;97.80;;;;;;5072648;28;20950;-55
2023/01/02 10:21:32;;;;;;;8.57;4.33;;;16.10;97.60;;;;;;5073753;28;20519;-55
2023/01/02 10:24:03;;;;;;;13.77;4.23;;;16.10;97.40;;;;;;5073317;28;20777;-56
2023/01/02 10:26:35;;;;;;;6.13;2.80;;;16.10;97.30;;;;;;5073585;28;20438;-58
2023/01/02 10:29:09;;;;;;;13.97;4.33;;;16.00;97.10;;;;;;5072614;28;20891;-57
2023/01/02 10:31:40;;;;;;;7.00;4.20;;;16.20;97.20;;;;;;5073383;28;20945;-57
2023/01/02 10:34:14;;;;;;;9.20;3.97;;;16.40;97.10;;;;;;5073034;28;20465;-56
2023/01/02 10:36:43;;;;;;;41.80;8.30;;;16.40;97.10;;;;;;5072880;28;20423;-55
2023/01/02 10:39:14;;;;;;;17.70;4.10;;;16.30;97.00;;;;;;5072346;28;20433;-55
2023/01/02 10:41:46;;;;;;;10.70;3.70;;;15.70;96.60;;;;;;5073055;28;20443;-55
2023/01/02 10:44:19;;;;;;;5.00;3.03;;;16.40;96.90;;;;;;5073168;28;20430;-55
2023/01/02 10:46:46;;;;;;;10.40;3.77;;;16.40;96.90;;;;;;5072787;28;20442;-55
2023/01/02 10:49:13;;;;;;;7.90;2.90;;;16.40;96.70;;;;;;5071913;28;20468;-56
2023/01/02 10:51:47;;;;;;;13.43;6.60;;;16.10;96.50;;;;;;5073007;28;20439;-55
2023/01/02 10:54:14;;;;;;;10.70;4.20;;;16.40;96.70;;;;;;5072951;28;20474;-55
2023/01/02 10:56:45;;;;;;;10.33;3.70;;;16.40;96.70;;;;;;5072854;28;20437;-55
2023/01/02 10:59:20;;;;;;;7.27;3.37;;;16.30;96.60;;;;;;5072080;28;20797;-55
2023/01/02 11:01:50;;;;;;;10.27;3.67;;;16.40;96.60;;;;;;5072545;28;20911;-55
2023/01/02 11:04:21;;;;;;;7.67;2.63;;;16.20;96.60;;;;;;5072524;28;20434;-55
2023/01/02 11:06:54;;;;;;;13.93;3.87;;;16.00;96.50;;;;;;5072630;28;20425;-55
2023/01/02 11:09:22;;;;;;;9.20;3.47;;;16.40;96.60;;;;;;5071886;28;20536;-55
2023/01/02 11:11:52;;;;;;;7.33;4.73;;;16.40;96.70;;;;;;5072055;28;20439;-56
2023/01/02 11:14:23;;;;;;;15.60;5.00;;;16.10;96.50;;;;;;5072550;28;20488;-56
2023/01/02 11:16:50;;;;;;;10.80;3.80;;;16.00;96.40;;;;;;5072704;28;20774;-55
2023/01/02 11:19:22;;;;;;;6.10;3.50;;;16.00;96.50;;;;;;5071423;28;20501;-57
2023/01/02 11:21:49;;;;;;;7.20;2.97;;;16.00;96.60;;;;;;5071986;28;20406;-55
2023/01/02 11:24:21;;;;;;;8.20;3.67;;;16.20;96.90;;;;;;5054487;28;20450;-57
2023/01/02 11:26:50;;;;;;;9.57;4.57;;;16.20;97.40;;;;;;5072618;28;20966;-56
2023/01/02 11:29:28;;;;;;;7.20;3.80;;;16.20;97.80;;;;;;5071658;28;20555;-54
2023/01/02 11:31:58;;;;;;;5.57;3.60;;;16.20;98.30;;;;;;5054376;28;20830;-57
2023/01/02 11:34:32;;;;;;;14.97;4.13;;;16.00;98.30;;;;;;5053993;28;20443;-55
2023/01/02 11:37:04;;;;;;;8.30;4.10;;;16.20;98.80;;;;;;5054088;28;20446;-55
2023/01/02 11:39:33;;;;;;;8.43;3.73;;;16.00;98.70;;;;;;5071243;28;20451;-55
2023/01/02 11:45:02;;;;;;;7.20;3.30;;;16.10;98.90;;;;;;5053893;28;20504;-56
2023/01/02 11:47:34;;;;;;;10.50;4.17;;;16.20;98.90;;;;;;5071814;28;20428;-56
2023/01/02 11:50:01;;;;;;;10.83;3.67;;;16.40;99.10;;;;;;5070966;28;20465;-56
2023/01/02 11:52:35;;;;;;;11.37;3.80;;;16.10;98.90;;;;;;5071763;28;20431;-57
2023/01/02 11:55:13;;;;;;;9.90;3.70;;;15.70;98.80;;;;;;5071786;28;20524;-57
2023/01/02 11:57:48;;;;;;;9.90;3.57;;;16.30;99.10;;;;;;5071679;28;20978;-57
2023/01/02 12:00:18;;;;;;;8.37;3.27;;;16.00;99.00;;;;;;5071090;28;20429;-55
2023/01/02 12:02:48;;;;;;;9.90;3.80;;;16.10;99.00;;;;;;5071795;28;20436;-56
2023/01/02 12:05:18;;;;;;;13.13;4.20;;;16.00;98.90;;;;;;5071522;28;20452;-57
2023/01/02 12:07:47;;;;;;;14.13;4.43;;;16.20;99.10;;;;;;5072027;28;20415;-56
2023/01/02 12:10:26;;;;;;;9.60;4.37;;;16.20;99.80;;;;;;5070781;28;20441;-57
2023/01/02 12:13:08;;;;;;;11.00;4.57;;;15.70;99.30;;;;;;5071869;28;20424;-56
2023/01/02 12:15:47;;;;;;;9.77;4.70;;;15.90;99.50;;;;;;5054110;28;20976;-58
2023/01/02 12:18:26;;;;;;;9.67;4.13;;;16.10;99.80;;;;;;5071728;28;20435;-55
2023/01/02 12:21:02;;;;;;;7.33;3.90;;;16.30;99.90;;;;;;5071149;28;20484;-57
2023/01/02 12:23:38;;;;;;;8.97;4.00;;;16.10;99.90;;;;;;5071510;28;20445;-57
2023/01/02 12:26:12;;;;;;;6.67;4.47;;;16.00;99.90;;;;;;5053593;28;20548;-55
2023/01/02 12:28:55;;;;;;;11.50;3.70;;;16.00;99.90;;;;;;5070933;28;20414;-55
2023/01/02 12:31:48;;;;;;;5.53;3.40;;;15.90;99.90;;;;;;5071395;28;20537;-57
2023/01/02 12:34:30;;;;;;;6.97;3.80;;;16.30;99.90;;;;;;5053510;28;20447;-55
2023/01/02 12:37:09;;;;;;;8.67;3.53;;;16.10;99.90;;;;;;5071798;28;20435;-57
2023/01/02 12:39:59;;;;;;;6.53;3.60;;;15.50;99.60;;;;;;5070910;28;20481;-55
2023/01/02 12:42:47;;;;;;;8.90;3.80;;;15.90;99.80;;;;;;5071445;28;20499;-56
2023/01/02 12:45:24;;;;;;;6.80;4.13;;;15.90;99.80;;;;;;5071412;28;20450;-56
2023/01/02 12:48:07;;;;;;;9.83;3.67;;;15.90;99.80;;;;;;5071409;28;20427;-55
2023/01/02 12:50:49;;;;;;;9.63;3.87;;;15.50;99.50;;;;;;5070556;28;20850;-56
2023/01/02 12:53:27;;;;;;;6.53;3.50;;;15.40;99.50;;;;;;5071236;28;20510;-55
2023/01/02 12:56:02;;;;;;;11.63;4.57;;;15.50;99.60;;;;;;5073505;28;20837;-56
2023/01/02 12:58:39;;;;;;;8.93;3.87;;;15.90;99.90;;;;;;5073954;28;20429;-56
2023/01/02 13:01:16;;;;;;;8.80;4.20;;;15.90;99.90;;;;;;5075010;28;20557;-55
2023/01/02 13:03:52;;;;;;;10.17;4.87;;;15.60;99.90;;;;;;5075198;28;20845;-56